Time;durP1;ratioP1;P1;durP2;ratioP2;P2;SDS_P1;SDS_P2;PMS_P1;PMS_P2;Temp;Humidity;BMP_temperature;BMP_pressure;BME280_temperature;BME280_humidity;BME280_pressure;Samples;Min_cycle;Max_cycle;Signal;HPM_P1;HPM_P2
2022/02/28 00:01:05;;;;;;;4.03;3.30;;;;;;;17.70;44.25;98816.56;5036678;28;20202;-87
2022/02/28 00:03:31;;;;;;;3.57;3.27;;;;;;;13.67;44.45;98119.19;5021199;28;20245;-89
2022/02/28 00:05:58;;;;;;;3.77;3.40;;;;;;;16.26;44.58;98537.78;5020775;28;20177;-85
2022/02/28 00:08:33;;;;;;;4.13;3.63;;;;;;;11.61;44.17;97681.91;5006238;28;20186;-88
2022/02/28 00:11:02;;;;;;;4.23;3.40;;;;;;;10.54;44.47;97494.88;5021217;28;20223;-87
2022/02/28 00:13:29;;;;;;;3.80;3.20;;;;;;;14.92;44.17;98295.59;5005652;28;20198;-82
2022/02/28 00:15:56;;;;;;;3.67;3.33;;;;;;;11.99;44.40;97770.22;5010668;28;20315;-83
2022/02/28 00:18:26;;;;;;;3.50;3.20;;;;;;;15.12;44.11;98410.84;4992359;28;20281;-83
2022/02/28 00:20:53;;;;;;;3.70;3.40;;;;;;;12.81;44.69;97999.50;5009045;28;20229;-83
2022/02/28 00:23:22;;;;;;;3.47;3.00;;;;;;;13.84;44.10;98159.13;4993339;28;20746;-82
2022/02/28 00:25:52;;;;;;;3.87;3.30;;;;;;;16.77;44.55;98589.41;4993824;28;20248;-81
2022/02/28 00:28:20;;;;;;;3.30;3.00;;;;;;;17.17;44.07;98652.09;5008912;28;20206;-83
2022/02/28 00:30:47;;;;;;;3.20;2.90;;;;;;;17.04;44.54;98630.91;4992456;28;20452;-82
2022/02/28 00:33:13;;;;;;;3.43;3.13;;;;;;;17.90;44.11;98772.06;4993586;28;20256;-83
2022/02/28 00:35:40;;;;;;;3.40;3.10;;;;;;;16.10;44.00;98451.31;4992943;28;20226;-82
2022/02/28 00:38:08;;;;;;;3.30;2.97;;;;;;;17.06;44.28;98621.75;5008791;28;20390;-83
2022/02/28 00:40:36;;;;;;;3.97;3.57;;;;;;;17.16;44.21;98627.50;4976843;28;20225;-82
2022/02/28 00:43:05;;;;;;;3.30;3.00;;;;;;;13.51;44.47;98000.25;5009028;28;20971;-81
2022/02/28 00:45:34;;;;;;;3.40;3.10;;;;;;;16.03;44.86;98447.53;5008843;28;20651;-82
2022/02/28 00:48:01;;;;;;;3.73;3.40;;;;;;;14.48;44.26;98205.75;4976755;28;20206;-82
2022/02/28 00:50:28;;;;;;;3.87;3.37;;;;;;;14.13;44.39;98147.72;4992410;28;20357;-82
2022/02/28 00:52:55;;;;;;;3.53;3.23;;;;;;;14.84;44.27;98235.13;4976674;28;20217;-80
2022/02/28 00:55:24;;;;;;;3.30;3.00;;;;;;;15.90;44.12;98409.44;4976906;28;20233;-82
2022/02/28 00:57:50;;;;;;;3.73;3.43;;;;;;;16.48;44.16;98522.31;5008886;28;20715;-83
2022/02/28 01:00:18;;;;;;;3.50;3.20;;;;;;;14.70;44.04;98206.41;5009080;28;20821;-80
2022/02/28 01:02:45;;;;;;;4.00;3.40;;;;;;;17.40;44.41;98676.44;5009061;28;20252;-82
2022/02/28 01:05:12;;;;;;;3.80;3.33;;;;;;;18.06;44.38;98785.00;4992148;28;20253;-82
2022/02/28 01:07:42;;;;;;;4.53;3.53;;;;;;;16.04;44.13;98434.06;4992476;28;20198;-83
2022/02/28 01:10:09;;;;;;;3.40;3.10;;;;;;;15.42;43.98;98330.25;4995369;28;20239;-81
2022/02/28 01:12:36;;;;;;;3.67;3.37;;;;;;;15.18;44.29;98308.34;4991356;28;20202;-81
2022/02/28 01:15:04;;;;;;;3.30;3.00;;;;;;;16.71;44.24;98571.25;5010101;28;20218;-81
2022/02/28 01:17:31;;;;;;;4.00;3.30;;;;;;;16.85;44.17;98565.41;4994106;28;20198;-82
2022/02/28 01:19:58;;;;;;;4.53;3.30;;;;;;;14.11;44.38;98186.28;5021242;28;20234;-80
2022/02/28 01:22:25;;;;;;;3.43;3.13;;;;;;;17.82;44.43;98753.78;5012899;28;20210;-81
2022/02/28 01:24:52;;;;;;;3.60;3.10;;;;;;;15.77;44.29;98386.63;5028881;28;20548;-83
2022/02/28 01:27:22;;;;;;;3.43;3.13;;;;;;;17.42;44.31;98672.34;5013202;28;20660;-82
2022/02/28 01:29:50;;;;;;;3.30;3.00;;;;;;;12.42;43.98;97820.28;5012918;28;20292;-82
2022/02/28 01:32:17;;;;;;;3.50;3.20;;;;;;;13.72;44.51;98115.34;5012472;28;20206;-80
2022/02/28 01:34:44;;;;;;;3.13;2.83;;;;;;;14.68;44.56;98186.06;4996669;28;20214;-82
2022/02/28 01:37:13;;;;;;;3.20;2.90;;;;;;;13.47;44.52;98028.59;5014328;28;20198;-83
2022/02/28 01:39:44;;;;;;;3.80;3.40;;;;;;;16.43;44.44;98555.88;4982113;28;20226;-82
2022/02/28 01:42:11;;;;;;;3.50;3.20;;;;;;;15.64;44.24;98385.72;4996224;28;20224;-82
2022/02/28 01:44:38;;;;;;;3.10;2.90;;;;;;;11.41;44.28;97631.84;4996010;28;20205;-83
2022/02/28 01:47:05;;;;;;;3.80;3.40;;;;;;;13.83;44.41;98057.19;4995348;28;20633;-83
2022/02/28 01:49:32;;;;;;;3.53;3.23;;;;;;;15.13;44.56;98303.75;4982849;28;20234;-90
2022/02/28 01:51:59;;;;;;;3.50;3.20;;;;;;;17.70;44.53;98712.34;5037311;28;20185;-89
2022/02/28 01:54:38;;;;;;;3.57;3.17;;;;;;;14.43;44.55;98202.03;5023465;28;20225;-88
2022/02/28 01:57:10;;;;;;;3.23;2.93;;;;;;;14.01;44.46;98108.97;5009143;28;20254;-88
2022/02/28 01:59:39;;;;;;;3.53;3.20;;;;;;;12.28;44.59;97811.75;5006365;28;20229;-87
2022/02/28 02:02:09;;;;;;;3.53;3.23;;;;;;;18.05;44.49;98773.03;5043855;28;20186;-88
2022/02/28 02:04:38;;;;;;;3.77;3.33;;;;;;;13.42;44.38;98040.91;5022025;28;20246;-89
2022/02/28 02:07:05;;;;;;;3.30;2.93;;;;;;;14.17;44.33;98209.44;5039262;28;20201;-90
2022/02/28 02:09:34;;;;;;;3.40;3.10;;;;;;;16.51;44.51;98656.97;5038298;28;20202;-87
2022/02/28 02:12:07;;;;;;;4.03;3.60;;;;;;;13.84;44.22;98043.81;5014812;28;20199;-89
2022/02/28 02:14:39;;;;;;;3.80;3.40;;;;;;;11.19;44.39;97580.78;4984562;28;20210;-82
2022/02/28 02:17:06;;;;;;;3.27;2.97;;;;;;;13.53;44.49;97989.47;5010998;28;20218;-82
2022/02/28 02:19:34;;;;;;;3.50;3.20;;;;;;;12.87;44.63;97871.31;5010928;28;20218;-83
2022/02/28 02:22:03;;;;;;;3.63;3.33;;;;;;;12.50;44.32;97806.56;5004145;28;20217;-84
2022/02/28 02:24:30;;;;;;;3.37;3.07;;;;;;;11.20;44.55;97596.75;5013128;28;20210;-79
2022/02/28 02:26:57;;;;;;;3.43;3.10;;;;;;;16.67;44.26;98531.19;4995739;28;20206;-83
2022/02/28 02:29:26;;;;;;;3.37;3.07;;;;;;;16.86;44.62;98566.25;4979328;28;20730;-83
2022/02/28 02:31:53;;;;;;;3.30;3.00;;;;;;;17.32;44.20;98644.59;5011608;28;20788;-82
2022/02/28 02:34:23;;;;;;;3.53;3.10;;;;;;;17.04;44.59;98601.31;4996293;28;20209;-82
2022/02/28 02:36:49;;;;;;;3.40;3.10;;;;;;;16.89;44.26;98574.97;5018792;28;20258;-82
2022/02/28 02:39:16;;;;;;;3.40;3.10;;;;;;;17.71;44.44;98715.78;4995213;28;20563;-82
2022/02/28 02:41:43;;;;;;;3.57;3.27;;;;;;;17.69;44.28;98710.59;5011095;28;20538;-82
2022/02/28 02:44:12;;;;;;;3.20;2.90;;;;;;;17.64;44.45;98695.81;5012538;28;20206;-81
2022/02/28 02:46:50;;;;;;;3.30;3.00;;;;;;;17.58;44.68;98688.69;5011753;28;20301;-84
2022/02/28 02:49:18;;;;;;;3.70;3.30;;;;;;;18.08;44.51;98765.59;4979886;28;20286;-82
2022/02/28 02:51:44;;;;;;;3.50;3.20;;;;;;;17.30;44.33;98634.34;5012157;28;20267;-80
2022/02/28 02:54:11;;;;;;;3.50;3.20;;;;;;;17.01;44.58;98585.00;4994505;28;20353;-82
2022/02/28 02:56:45;;;;;;;3.30;3.00;;;;;;;16.48;44.35;98492.75;4995456;28;20594;-83
2022/02/28 02:59:11;;;;;;;3.47;3.17;;;;;;;16.46;44.34;98490.91;4994785;28;20582;-82
2022/02/28 03:01:41;;;;;;;3.20;2.90;;;;;;;13.63;44.29;97993.50;4995182;28;20236;-84
2022/02/28 03:04:08;;;;;;;3.43;3.13;;;;;;;16.67;44.07;98517.66;4984176;28;20449;-82
2022/02/28 03:06:35;;;;;;;3.23;2.87;;;;;;;15.43;44.65;98298.22;5014899;28;20252;-83
2022/02/28 03:09:01;;;;;;;3.60;3.30;;;;;;;16.85;44.37;98550.16;5012056;28;20202;-81
2022/02/28 03:11:28;;;;;;;3.20;2.90;;;;;;;11.88;44.62;97736.75;5010536;28;20221;-83
2022/02/28 03:13:55;;;;;;;3.20;2.90;;;;;;;15.61;44.43;98352.59;5011566;28;20645;-82
2022/02/28 03:16:24;;;;;;;3.20;2.90;;;;;;;16.85;44.42;98579.75;4978195;28;20214;-82
2022/02/28 03:18:51;;;;;;;3.20;2.90;;;;;;;15.33;44.61;98326.19;4979144;28;20862;-82
2022/02/28 03:21:20;;;;;;;3.33;3.03;;;;;;;18.01;44.43;98763.47;5011177;28;20223;-83
2022/02/28 03:23:47;;;;;;;3.53;3.20;;;;;;;13.61;44.74;97995.03;5010881;28;20372;-80
2022/02/28 03:26:16;;;;;;;3.50;3.20;;;;;;;13.82;44.65;98065.56;4994154;28;20245;-83
2022/02/28 03:28:43;;;;;;;3.10;2.80;;;;;;;16.05;44.19;98412.13;5026147;28;20210;-83
2022/02/28 03:31:10;;;;;;;3.23;2.93;;;;;;;11.24;44.06;97618.81;4993608;28;20226;-83
2022/02/28 03:33:37;;;;;;;3.67;3.20;;;;;;;15.75;44.41;98361.97;4993579;28;20206;-83
2022/02/28 03:36:04;;;;;;;3.43;3.13;;;;;;;15.83;44.44;98381.97;5009451;28;20215;-82
2022/02/28 03:38:31;;;;;;;3.57;3.27;;;;;;;17.55;44.25;98685.94;5011553;28;20202;-83
2022/02/28 03:40:59;;;;;;;3.37;3.07;;;;;;;17.09;44.62;98601.63;5010139;28;20272;-82
2022/02/28 03:43:30;;;;;;;3.47;3.17;;;;;;;17.47;44.30;98679.50;5011039;28;20206;-82
2022/02/28 03:45:59;;;;;;;2.90;2.70;;;;;;;16.96;44.62;98584.72;5010785;28;20198;-81
2022/02/28 03:48:26;;;;;;;3.90;3.50;;;;;;;16.76;44.64;98563.91;5009814;28;20660;-81
2022/02/28 03:50:55;;;;;;;3.67;3.37;;;;;;;15.14;44.56;98255.75;5009274;28;20226;-84
2022/02/28 03:53:23;;;;;;;3.40;3.10;;;;;;;17.87;44.63;98742.25;5003395;28;20175;-90
2022/02/28 03:55:50;;;;;;;3.03;2.80;;;;;;;11.64;43.82;97653.59;5020635;28;20245;-89
2022/02/28 03:58:24;;;;;;;3.40;3.10;;;;;;;15.40;44.35;98401.84;5019596;28;20216;-90
2022/02/28 04:00:50;;;;;;;3.37;3.07;;;;;;;10.71;44.29;97496.91;5034356;28;20199;-89
2022/02/28 04:06:00;;;;;;;3.83;3.53;;;;;;;13.83;44.48;98079.94;3213221;26;20198;-90
2022/02/28 04:08:27;;;;;;;3.57;3.27;;;;;;;11.36;44.27;97617.16;5037089;28;20181;-90
2022/02/28 04:10:57;;;;;;;3.53;3.10;;;;;;;13.65;44.17;98151.06;5002493;28;20241;-90
2022/02/28 04:13:24;;;;;;;3.50;3.20;;;;;;;10.68;44.18;97583.00;4996911;28;20171;-90
2022/02/28 04:16:04;;;;;;;3.30;3.00;;;;;;;12.04;44.31;97777.31;5016764;28;20270;-89
2022/02/28 04:18:31;;;;;;;3.40;3.10;;;;;;;10.49;44.29;97463.50;5017471;28;20175;-89
2022/02/28 04:20:58;;;;;;;3.30;3.00;;;;;;;12.67;44.08;97834.66;5012100;28;20288;-82
2022/02/28 04:23:25;;;;;;;3.30;3.00;;;;;;;13.80;44.44;98072.13;5011408;28;20233;-83
2022/02/28 04:25:51;;;;;;;3.27;2.80;;;;;;;12.24;44.11;97744.31;4978155;28;20644;-82
2022/02/28 04:28:18;;;;;;;3.57;3.20;;;;;;;15.13;44.60;98258.19;5010922;28;20747;-82
2022/02/28 04:30:45;;;;;;;3.43;3.13;;;;;;;16.88;44.56;98560.53;5008760;28;20785;-82
2022/02/28 04:33:12;;;;;;;3.30;3.00;;;;;;;16.34;44.57;98468.09;5009681;28;20909;-84
2022/02/28 04:35:38;;;;;;;2.97;2.73;;;;;;;16.94;44.25;98567.63;4986034;28;20285;-82
2022/02/28 04:38:05;;;;;;;3.33;3.00;;;;;;;17.52;44.60;98667.97;5001031;28;20214;-82
2022/02/28 04:40:34;;;;;;;3.40;2.87;;;;;;;15.74;44.56;98371.22;4976684;28;20222;-83
2022/02/28 04:43:01;;;;;;;3.50;2.97;;;;;;;15.50;44.52;98313.91;4974458;28;20738;-82
2022/02/28 04:45:27;;;;;;;3.40;3.10;;;;;;;17.37;44.53;98654.25;4982108;28;20227;-82
2022/02/28 04:47:54;;;;;;;3.10;2.80;;;;;;;15.92;44.41;98381.66;4974690;28;20211;-81
2022/02/28 04:50:21;;;;;;;3.60;3.30;;;;;;;16.21;44.52;98443.63;4972308;28;20272;-83
2022/02/28 04:52:50;;;;;;;3.00;2.77;;;;;;;15.12;44.35;98241.22;4993149;28;20209;-82
2022/02/28 04:55:22;;;;;;;3.57;3.27;;;;;;;16.00;44.69;98399.16;5007779;28;20594;-83
2022/02/28 04:57:55;;;;;;;2.97;2.77;;;;;;;17.70;44.48;98780.97;5010628;28;20234;-82
2022/02/28 05:00:26;;;;;;;3.37;3.07;;;;;;;12.28;44.11;97775.59;4992181;28;20300;-84
2022/02/28 05:02:53;;;;;;;2.90;2.70;;;;;;;18.18;44.47;98801.88;4987666;28;20206;-84
2022/02/28 05:05:21;;;;;;;3.50;3.20;;;;;;;17.69;44.21;98697.88;5009100;28;20256;-84
2022/02/28 05:07:51;;;;;;;3.53;3.23;;;;;;;17.65;44.50;98695.06;5004935;28;20199;-83
2022/02/28 05:10:17;;;;;;;3.73;3.33;;;;;;;17.81;44.37;98711.34;4991395;28;20283;-84
2022/02/28 05:12:47;;;;;;;4.10;3.70;;;;;;;18.25;44.57;98782.78;4993110;28;20212;-84
2022/02/28 05:15:14;;;;;;;3.50;3.20;;;;;;;14.89;44.55;98188.25;5010461;28;20664;-82
2022/02/28 05:17:43;;;;;;;3.47;3.17;;;;;;;15.35;44.06;98337.31;5006645;28;20602;-82
2022/02/28 05:20:10;;;;;;;3.67;3.00;;;;;;;13.89;44.51;98026.44;5007816;28;20229;-84
2022/02/28 05:22:42;;;;;;;3.23;2.93;;;;;;;14.49;44.02;98193.22;4992042;28;20278;-84
2022/02/28 05:25:09;;;;;;;3.40;3.10;;;;;;;15.37;44.38;98287.63;5010502;28;20230;-84
2022/02/28 05:27:37;;;;;;;3.40;3.10;;;;;;;17.77;44.47;98704.31;5009012;28;20230;-82
2022/02/28 05:30:07;;;;;;;3.30;3.00;;;;;;;17.18;44.27;98602.19;4992369;28;20595;-84
2022/02/28 05:32:34;;;;;;;3.33;3.07;;;;;;;14.53;44.14;98134.47;4992979;28;20233;-83
2022/02/28 05:35:03;;;;;;;3.70;3.40;;;;;;;14.57;44.49;98149.06;5004279;28;20833;-82
2022/02/28 05:37:30;;;;;;;3.20;2.90;;;;;;;17.60;44.08;98686.25;5011029;28;20253;-82
2022/02/28 05:39:57;;;;;;;3.47;3.13;;;;;;;17.34;44.67;98623.59;4994444;28;20787;-81
2022/02/28 05:42:23;;;;;;;6.63;2.90;;;;;;;18.30;43.78;98801.78;4989946;28;20195;-83
2022/02/28 05:44:50;;;;;;;6.73;3.13;;;;;;;17.92;44.19;98730.69;5007617;28;20226;-83
2022/02/28 05:47:17;;;;;;;12.93;4.10;;;;;;;18.32;43.73;98809.50;4994240;28;20198;-82
2022/02/28 05:49:43;;;;;;;24.87;5.03;;;;;;;17.78;44.74;98715.34;5010676;28;20295;-83
2022/02/28 05:52:10;;;;;;;13.53;3.90;;;;;;;18.07;44.53;98767.28;5009634;28;20272;-83
2022/02/28 05:54:37;;;;;;;18.43;4.10;;;;;;;17.59;44.85;98689.59;5012137;28;20260;-82
2022/02/28 05:57:04;;;;;;;11.87;4.73;;;;;;;17.90;43.97;98736.47;4992413;28;20302;-81
2022/02/28 05:59:31;;;;;;;12.43;5.27;;;;;;;17.38;42.33;98650.06;4998171;28;20218;-81
2022/02/28 06:01:58;;;;;;;12.47;5.90;;;;;;;17.53;42.33;98679.88;4993340;28;20198;-82
2022/02/28 06:04:27;;;;;;;9.33;5.30;;;;;;;17.85;42.26;98731.09;5001384;28;20243;-84
2022/02/28 06:06:54;;;;;;;11.97;6.20;;;;;;;17.81;40.54;98726.63;4995874;28;20679;-82
2022/02/28 06:09:20;;;;;;;13.87;6.07;;;;;;;17.58;40.50;98687.81;4978559;28;20234;-83
2022/02/28 06:11:49;;;;;;;12.63;6.40;;;;;;;17.67;39.71;98699.44;4994824;28;20202;-82
2022/02/28 06:14:16;;;;;;;21.47;6.67;;;;;;;17.91;40.11;98758.56;4994064;28;20234;-84
2022/02/28 06:16:48;;;;;;;11.77;6.10;;;;;;;17.68;40.17;98711.34;4993170;28;20229;-85
2022/02/28 06:19:16;;;;;;;9.87;5.93;;;;;;;17.28;40.27;98640.09;4980391;28;20194;-84
2022/02/28 06:21:43;;;;;;;9.67;6.10;;;;;;;17.52;40.12;98683.22;5011435;28;20250;-83
2022/02/28 06:24:10;;;;;;;12.70;6.90;;;;;;;17.83;39.78;98741.97;4995231;28;20288;-83
2022/02/28 06:26:36;;;;;;;14.10;5.93;;;;;;;17.96;40.47;98770.81;4994376;28;20249;-84
2022/02/28 06:29:03;;;;;;;9.87;6.00;;;;;;;17.38;39.92;98673.81;4994119;28;20637;-83
2022/02/28 06:31:29;;;;;;;14.03;7.77;;;;;;;18.06;39.80;98793.47;4993224;28;20282;-83
2022/02/28 06:33:56;;;;;;;14.53;7.77;;;;;;;17.76;40.13;98740.69;4980420;28;20202;-81
2022/02/28 06:36:23;;;;;;;11.37;6.90;;;;;;;17.68;40.33;98723.19;4996015;28;20260;-84
2022/02/28 06:38:49;;;;;;;12.83;7.47;;;;;;;17.99;39.88;98776.09;4991474;28;20234;-84
2022/02/28 06:41:16;;;;;;;15.83;7.37;;;;;;;17.78;40.40;98754.41;4958574;28;20227;-83
2022/02/28 06:43:43;;;;;;;16.00;6.90;;;;;;;17.95;40.47;98779.19;4975032;28;20293;-82
2022/02/28 06:46:09;;;;;;;11.40;6.53;;;;;;;17.70;40.90;98740.31;4975817;28;20230;-83
2022/02/28 06:48:36;;;;;;;10.93;6.60;;;;;;;18.24;41.07;98842.97;5005215;28;20202;-83
2022/02/28 06:51:02;;;;;;;13.10;6.57;;;;;;;18.11;41.09;98821.75;4993470;28;20230;-85
2022/02/28 06:53:29;;;;;;;9.17;5.87;;;;;;;17.79;41.63;98758.69;4978648;28;20363;-82
2022/02/28 06:55:56;;;;;;;13.27;5.77;;;;;;;18.02;41.49;98805.91;4978415;28;20241;-84
2022/02/28 06:58:23;;;;;;;9.47;6.20;;;;;;;17.62;42.08;98725.38;4991704;28;20222;-83
2022/02/28 07:00:53;;;;;;;8.23;5.40;;;;;;;17.68;41.85;98734.22;4982720;28;20664;-84
2022/02/28 07:03:21;;;;;;;9.80;5.00;;;;;;;17.85;41.56;98758.19;4994996;28;20665;-83
2022/02/28 07:05:52;;;;;;;10.47;6.27;;;;;;;17.71;42.04;98736.09;4996752;28;20658;-84
2022/02/28 07:08:19;;;;;;;11.27;5.77;;;;;;;17.89;42.04;98762.69;4959443;28;20242;-81
2022/02/28 07:10:46;;;;;;;10.17;5.23;;;;;;;17.91;42.13;98773.81;4967990;28;20301;-83
2022/02/28 07:13:12;;;;;;;11.80;5.40;;;;;;;17.72;42.55;98743.84;4975678;28;20280;-83
2022/02/28 07:15:40;;;;;;;9.93;5.47;;;;;;;17.68;42.58;98751.16;4993513;28;20214;-84
2022/02/28 07:18:07;;;;;;;10.77;5.37;;;;;;;17.73;42.76;98759.94;4993070;28;20313;-83
2022/02/28 07:20:33;;;;;;;13.23;5.23;;;;;;;17.67;42.68;98750.28;5007924;28;20618;-81
2022/02/28 07:23:00;;;;;;;10.50;5.73;;;;;;;18.12;42.75;98836.25;4989635;28;20579;-84
2022/02/28 07:25:27;;;;;;;9.13;4.80;;;;;;;18.03;42.96;98828.03;5006565;28;20236;-83
2022/02/28 07:27:54;;;;;;;8.23;5.27;;;;;;;17.97;43.19;98848.88;4972430;28;20290;-84
2022/02/28 07:30:20;;;;;;;8.50;4.83;;;;;;;17.62;42.98;98751.63;4974552;28;20262;-83
2022/02/28 07:32:48;;;;;;;8.10;5.07;;;;;;;17.76;42.85;98789.00;4971365;28;20206;-83
2022/02/28 07:35:17;;;;;;;8.20;4.90;;;;;;;17.61;42.96;98754.97;5002118;28;20220;-82
2022/02/28 07:37:43;;;;;;;5.53;4.80;;;;;;;17.91;43.10;98814.50;4976219;28;20246;-85
2022/02/28 07:40:11;;;;;;;5.93;4.97;;;;;;;17.40;43.45;98727.25;4993952;28;20782;-83
2022/02/28 07:42:37;;;;;;;7.40;4.97;;;;;;;17.67;43.30;98793.50;5008279;28;20285;-85
2022/02/28 07:45:05;;;;;;;12.03;7.60;;;;;;;17.40;40.49;98737.44;4988900;28;20242;-84
2022/02/28 07:47:32;;;;;;;10.27;6.90;;;;;;;17.45;39.50;98761.50;4993253;28;20241;-84
2022/02/28 07:52:40;;;;;;;10.23;6.53;;;;;;;12.80;40.11;97980.97;5195407;22;20228;-89
2022/02/28 07:55:21;;;;;;;12.07;5.73;;;;;;;11.86;40.55;97871.69;5045079;28;20201;-89
2022/02/28 07:57:55;;;;;;;9.10;6.03;;;;;;;11.24;40.98;97676.66;5027494;28;20182;-90
2022/02/28 08:00:41;;;;;;;8.07;6.00;;;;;;;12.88;40.96;98084.94;5033133;28;20205;-89
2022/02/28 08:03:08;;;;;;;9.10;6.13;;;;;;;13.85;41.27;98189.53;5008314;28;20182;-91
2022/02/28 08:05:35;;;;;;;9.30;6.07;;;;;;;14.06;41.89;98185.06;5023987;28;20174;-92
2022/02/28 08:08:02;;;;;;;8.40;6.10;;;;;;;13.95;41.52;98208.75;5024014;28;20242;-89
2022/02/28 08:10:29;;;;;;;8.80;6.00;;;;;;;13.63;42.35;98152.59;5024027;28;20163;-90
2022/02/28 08:12:57;;;;;;;6.77;5.43;;;;;;;14.85;42.44;98376.06;5023962;28;20171;-90
2022/02/28 08:15:24;;;;;;;7.90;5.67;;;;;;;10.03;42.62;97481.03;5007758;28;20170;-90
2022/02/28 08:17:51;;;;;;;6.83;5.60;;;;;;;14.09;42.50;98251.00;5007866;28;20182;-90
2022/02/28 08:20:18;;;;;;;6.53;5.73;;;;;;;13.50;42.67;98188.72;5020858;28;20182;-90
2022/02/28 08:22:45;;;;;;;10.73;6.67;;;;;;;10.38;41.55;97537.22;5063280;28;20165;-90
2022/02/28 08:44:03;;;;;;;6.13;4.87;;;;;;;18.17;42.50;98880.66;4113151;22;20228;-82
2022/02/28 08:46:30;;;;;;;12.63;5.43;;;;;;;15.14;42.47;98353.59;5017819;28;20239;-84
2022/02/28 08:48:56;;;;;;;10.07;5.13;;;;;;;17.40;42.34;98753.56;5019747;28;20221;-83
2022/02/28 08:51:23;;;;;;;6.27;4.83;;;;;;;17.94;42.30;98838.50;5025560;28;20327;-85
2022/02/28 08:53:49;;;;;;;7.20;5.27;;;;;;;17.20;42.52;98708.19;5000844;28;20304;-84
2022/02/28 08:56:16;;;;;;;6.80;4.93;;;;;;;17.67;42.87;98790.94;5011548;28;20284;-84
2022/02/28 08:58:42;;;;;;;5.40;4.90;;;;;;;17.85;42.47;98835.34;5003995;28;20630;-82
2022/02/28 09:01:09;;;;;;;6.37;5.17;;;;;;;17.57;42.51;98777.56;5007192;28;20250;-84
2022/02/28 09:03:36;;;;;;;8.00;5.30;;;;;;;17.58;42.68;98770.03;5008063;28;20280;-84
2022/02/28 09:06:03;;;;;;;5.30;4.80;;;;;;;18.29;42.89;98885.66;5018325;28;20569;-82
2022/02/28 09:08:29;;;;;;;5.43;4.43;;;;;;;17.74;42.91;98789.69;5012493;28;20426;-84
2022/02/28 09:10:56;;;;;;;7.27;5.10;;;;;;;16.95;42.87;98663.31;5020886;28;20253;-85
2022/02/28 09:13:23;;;;;;;6.47;5.07;;;;;;;17.61;43.17;98775.31;5023141;28;20667;-85
2022/02/28 09:15:50;;;;;;;5.67;4.80;;;;;;;17.62;42.99;98771.13;5008360;28;20288;-84
2022/02/28 09:18:17;;;;;;;6.47;4.87;;;;;;;18.09;42.81;98861.50;4988367;28;20594;-84
2022/02/28 09:20:44;;;;;;;5.37;4.77;;;;;;;17.61;42.60;98771.88;5019968;28;20252;-83
2022/02/28 09:23:10;;;;;;;5.37;4.40;;;;;;;17.44;42.68;98747.91;4997611;28;20202;-83
2022/02/28 09:25:37;;;;;;;5.87;4.83;;;;;;;17.95;42.76;98831.75;5024470;28;20285;-82
2022/02/28 09:28:04;;;;;;;6.03;4.80;;;;;;;17.74;42.97;98803.25;5001667;28;20281;-83
2022/02/28 09:30:30;;;;;;;5.17;4.67;;;;;;;18.07;42.80;98847.78;4994597;28;20672;-83
2022/02/28 09:32:57;;;;;;;6.10;4.43;;;;;;;17.67;43.22;98780.78;5011881;28;20221;-84
2022/02/28 09:35:27;;;;;;;5.10;4.57;;;;;;;17.97;42.33;98833.59;5028385;28;20264;-84
2022/02/28 09:37:54;;;;;;;5.73;4.40;;;;;;;17.87;42.75;98812.56;5008242;28;20308;-84
2022/02/28 09:40:26;;;;;;;5.80;4.70;;;;;;;16.74;42.52;98624.75;5005230;28;20588;-82
2022/02/28 09:42:55;;;;;;;7.70;4.50;;;;;;;17.53;42.76;98756.13;5029411;28;20263;-85
2022/02/28 09:45:21;;;;;;;9.27;5.03;;;;;;;17.69;42.81;98783.44;4998720;28;20280;-84
2022/02/28 09:47:48;;;;;;;6.30;4.60;;;;;;;18.26;43.17;98882.94;4998315;28;20225;-84
2022/02/28 09:50:15;;;;;;;8.93;4.70;;;;;;;17.83;42.78;98806.41;5000291;28;20221;-84
2022/02/28 09:52:42;;;;;;;8.53;4.70;;;;;;;17.82;43.26;98812.28;5020427;28;20202;-84
2022/02/28 09:55:10;;;;;;;7.83;5.43;;;;;;;17.81;42.69;98807.97;4991860;28;20296;-84
2022/02/28 09:57:36;;;;;;;5.83;4.50;;;;;;;17.66;42.98;98788.31;5030501;28;20240;-83
2022/02/28 10:00:03;;;;;;;5.90;4.90;;;;;;;17.67;42.66;98779.91;5011193;28;20237;-83
2022/02/28 10:02:30;;;;;;;8.13;5.30;;;;;;;16.72;43.24;98636.44;5023097;28;20279;-83
2022/02/28 10:04:57;;;;;;;7.27;4.50;;;;;;;17.73;43.13;98801.50;5011458;28;20204;-82
2022/02/28 10:07:25;;;;;;;5.80;4.40;;;;;;;17.88;42.98;98814.31;5001970;28;20225;-84
2022/02/28 10:10:01;;;;;;;7.27;4.43;;;;;;;17.79;43.25;98791.75;4998256;28;20218;-84
2022/02/28 10:12:31;;;;;;;10.87;5.13;;;;;;;16.66;43.04;98595.44;5025225;28;20201;-84
2022/02/28 10:15:08;;;;;;;6.73;4.60;;;;;;;17.64;43.24;98756.81;5030881;28;20197;-84
2022/02/28 10:17:41;;;;;;;7.17;4.73;;;;;;;18.27;43.26;98869.41;4993385;28;20758;-84
2022/02/28 10:20:27;;;;;;;9.80;4.03;;;;;;;17.65;43.36;98774.72;5030797;28;20642;-81
2022/02/28 10:22:58;;;;;;;6.47;4.27;;;;;;;17.14;43.29;98690.00;4998057;28;20255;-83
2022/02/28 10:25:29;;;;;;;8.20;4.13;;;;;;;18.25;43.20;98871.84;5013748;28;20265;-83
2022/02/28 10:28:25;;;;;;;6.83;3.97;;;;;;;18.24;43.57;98865.88;5009261;28;20190;-83
2022/02/28 10:31:01;;;;;;;8.87;4.53;;;;;;;17.85;43.79;98792.13;5012993;28;20744;-83
2022/02/28 10:33:35;;;;;;;9.73;4.40;;;;;;;18.20;43.49;98861.38;5011387;28;20212;-81
2022/02/28 10:36:15;;;;;;;6.07;4.50;;;;;;;17.60;43.86;98752.34;5024058;28;20236;-83
2022/02/28 10:38:53;;;;;;;6.30;4.13;;;;;;;18.22;43.67;98856.41;5001907;28;20648;-84
2022/02/28 10:41:26;;;;;;;8.03;4.50;;;;;;;17.64;43.85;98750.09;5016915;28;20253;-83
2022/02/28 10:43:54;;;;;;;7.27;4.30;;;;;;;17.22;43.78;98680.34;5011277;28;20202;-84
2022/02/28 10:46:22;;;;;;;8.33;4.27;;;;;;;18.19;43.66;98843.47;4990710;28;20193;-82
2022/02/28 10:49:02;;;;;;;6.07;4.37;;;;;;;18.17;43.65;98851.03;5028698;28;20200;-84
2022/02/28 10:51:30;;;;;;;6.53;4.60;;;;;;;17.49;44.01;98735.50;5030154;28;20201;-84
2022/02/28 10:54:21;;;;;;;4.97;3.87;;;;;;;18.15;44.04;98847.47;4997608;28;20629;-85
2022/02/28 10:56:51;;;;;;;7.47;3.93;;;;;;;18.16;43.98;98849.28;5026909;28;20821;-85
2022/02/28 10:59:18;;;;;;;5.93;4.30;;;;;;;16.93;44.01;98636.97;5029920;28;20682;-85
2022/02/28 11:01:45;;;;;;;6.43;3.97;;;;;;;17.81;44.01;98794.38;4998409;28;20217;-85
2022/02/28 11:04:12;;;;;;;8.77;4.20;;;;;;;16.33;44.16;98542.47;5014554;28;20209;-85
2022/02/28 11:06:39;;;;;;;5.53;4.23;;;;;;;16.20;43.69;98517.94;5009812;28;20713;-83
2022/02/28 11:09:06;;;;;;;4.43;3.77;;;;;;;14.62;43.95;98289.34;5004213;28;20202;-80
2022/02/28 11:11:33;;;;;;;5.40;3.93;;;;;;;16.56;43.79;98589.66;5030104;28;20285;-84
2022/02/28 11:14:00;;;;;;;4.70;3.93;;;;;;;17.44;43.89;98725.03;4992039;28;20236;-84
2022/02/28 11:16:28;;;;;;;5.97;3.90;;;;;;;15.56;44.33;98435.00;4993397;28;20206;-84
2022/02/28 11:19:01;;;;;;;7.07;3.80;;;;;;;16.59;44.20;98577.16;5001885;28;20229;-84
2022/02/28 11:21:28;;;;;;;3.93;3.53;;;;;;;14.02;44.12;98214.34;5009921;28;20214;-86
2022/02/28 11:23:57;;;;;;;5.17;4.10;;;;;;;15.60;44.83;98475.84;5020431;28;20229;-90
2022/02/28 11:26:48;;;;;;;5.07;3.63;;;;;;;13.71;44.33;98074.03;5009792;28;20260;-85
2022/02/28 11:29:14;;;;;;;3.97;3.57;;;;;;;15.48;44.29;98393.97;5015454;28;21000;-85
2022/02/28 11:31:41;;;;;;;4.67;3.90;;;;;;;17.11;44.32;98671.19;5028192;28;20211;-83
2022/02/28 11:34:10;;;;;;;5.33;4.30;;;;;;;16.17;44.43;98512.66;5022400;28;20244;-84
2022/02/28 11:36:47;;;;;;;5.03;3.97;;;;;;;18.11;44.22;98872.63;4998916;28;20217;-82
2022/02/28 11:39:14;;;;;;;4.10;3.63;;;;;;;17.87;44.23;98815.13;5013348;28;20240;-85
2022/02/28 11:41:40;;;;;;;4.17;3.73;;;;;;;17.84;44.42;98805.63;5022207;28;20292;-84
2022/02/28 11:44:08;;;;;;;4.10;3.70;;;;;;;17.72;44.11;98781.97;4994893;28;20696;-85
2022/02/28 11:46:41;;;;;;;5.43;4.10;;;;;;;15.52;44.73;98428.00;4988964;28;20202;-84
2022/02/28 11:49:19;;;;;;;5.20;3.70;;;;;;;14.62;44.17;98270.75;5000575;28;20243;-84
2022/02/28 11:51:52;;;;;;;5.03;3.27;;;;;;;10.75;44.34;97625.41;5030768;28;20374;-83
2022/02/28 11:54:25;;;;;;;4.93;3.50;;;;;;;13.40;44.55;97989.41;5014439;28;20196;-83
2022/02/28 11:56:54;;;;;;;5.33;3.80;;;;;;;17.38;44.46;98685.66;5011656;28;20210;-84
2022/02/28 11:59:21;;;;;;;5.40;3.90;;;;;;;16.88;44.74;98590.97;5015234;28;20286;-83
2022/02/28 12:01:48;;;;;;;5.17;4.00;;;;;;;17.85;44.90;98763.25;5006024;28;20198;-84